TAF LFBP
AMD LFBP 270619Z 2706/2806 24010KT 9999 FEW010 BKN020 BKN050 TEMPO 2706/2806 30015G25KT 3000 SHRA BKN012 FEW016CB BKN020TCU PROB30 TEMPO 2706/2709 -TSRA PROB30 TEMPO 2711/2715 -TSRAGS BKN015CB=
METAR LFBP
LFBP 270800Z AUTO 26008KT 5000 RA BR BKN017/// BKN025/// OVC045/// ///TCU 06/05 Q1000 TEMPO 30015G25KT -TSRA BKN012 FEW016CB BKN020TCU=
LFBP 270730Z AUTO 23007KT 200V280 9999 -RA SCT012/// BKN018/// BKN024/// ///CB 06/05 Q0999 TEMPO 30015G25KT 3000 SHRA BKN012 FEW016CB BKN020TCU=
LFBP 270700Z AUTO 28009KT 9999 -RA BKN013/// BKN024/// BKN032/// ///CB 06/05 Q0999 TEMPO 30015G25KT 3000 SHRA=
LFBP 270630Z AUTO 28005KT 200V330 6000 -SNRA FEW009/// BKN022/// BKN027/// ///CB 06/05 Q0999 TEMPO 30015G25KT 3000 SHRA BKN012 BKN020TCU=
LFBP 270600Z AUTO 21004KT 9999 FEW024/// SCT037/// BKN047/// ///CB 06/05 Q0999 TEMPO 23018G30KT 3000 SHRA=
WC LFBP
WS LFBP
WV LFBP